EETN/TLL METAR and TAF weather

Enter ICAO airport designator
Station Type Date Time Source
EETN METAR 2022/01/27 23:20 UTC NOAA

EETN 272320Z 06005KT 1300 R08/P2000N +SN BKN003 OVC012 00/00 Q0988


Station Type Date Time Source
EETN Decoded METAR 2022/01/27 23:20 UTC NOAA

Tallinn, Estonia (EETN) 59-24N 024-49E 34M
Jan 27, 2022 - 06:20 PM EST / 2022.01.27 2320 UTC
Wind: from the ENE (060 degrees) at 6 MPH (5 KT):0
Visibility: less than 1 mile:0
Sky conditions: overcast
Weather: heavy snow
Temperature: 32 F (0 C)
Windchill: 26 F (-3 C):1
Dew Point: 32 F (0 C)
Relative Humidity: 100%
Pressure (altimeter): 29.18 in. Hg (0988 hPa)
ob: EETN 272320Z 06005KT 1300 R08/P2000N +SN BKN003 OVC012 00/00 Q0988
cycle: 23

Station Type Date Time Source
EETN TAF 2022/01/27 18:03 UTC NOAA

TAF TAF EETN 271701Z 2718/2818 12008KT 8000 BKN005 BKN015
TEMPO 2718/2724 2000 SNRA BKN003
BECMG 2800/2802 01012KT
TEMPO 2800/2805 1000 +SN BR BKN003 PROB40
TEMPO 2800/2806 -FZRA
TEMPO 2805/2810 3000 SN
BECMG 2810/2812 35017G27KT SCT010 BKN020

Example: see airport list